sensor_id;sensor_type;location;lat;lon;timestamp;temperature;humidity
38084;DHT22;23894;51.466;7.444;2022-09-09T10:42:38;21.70;99.90
38084;DHT22;23894;51.466;7.444;2022-09-09T10:44:51;21.80;99.90
38084;DHT22;23894;51.466;7.444;2022-09-09T10:56:11;21.60;99.90
38084;DHT22;23894;51.466;7.444;2022-09-09T10:58:22;21.60;99.90
38084;DHT22;23894;51.466;7.444;2022-09-09T11:00:27;21.70;99.90
38084;DHT22;23894;51.466;7.444;2022-09-09T11:02:34;21.70;99.90
38084;DHT22;23894;51.466;7.444;2022-09-09T11:04:42;21.80;99.90
38084;DHT22;23894;51.466;7.444;2022-09-09T11:06:49;21.90;99.90
38084;DHT22;23894;51.466;7.444;2022-09-09T11:08:52;21.90;99.90
38084;DHT22;23894;51.466;7.444;2022-09-09T11:13:39;21.80;99.90
38084;DHT22;23894;51.466;7.444;2022-09-09T11:15:49;21.70;99.90
38084;DHT22;23894;51.466;7.444;2022-09-09T11:17:56;21.90;99.90
38084;DHT22;23894;51.466;7.444;2022-09-09T11:19:58;22.10;99.90
38084;DHT22;23894;51.466;7.444;2022-09-09T11:22:34;22.20;99.90
38084;DHT22;23894;51.466;7.444;2022-09-09T11:24:44;22.40;99.90
38084;DHT22;23894;51.466;7.444;2022-09-09T11:26:55;22.50;99.90
38084;DHT22;23894;51.466;7.444;2022-09-09T11:29:35;22.60;99.90
38084;DHT22;23894;51.466;7.444;2022-09-09T11:37:08;23.20;99.90
38084;DHT22;23894;51.466;7.444;2022-09-09T11:41:34;23.20;99.90
38084;DHT22;23894;51.466;7.444;2022-09-09T11:43:52;23.30;99.90
38084;DHT22;23894;51.466;7.444;2022-09-09T11:45:56;24.00;99.90
38084;DHT22;23894;51.466;7.444;2022-09-09T11:48:00;24.50;99.90
38084;DHT22;23894;51.466;7.444;2022-09-09T11:50:29;24.50;99.90
38084;DHT22;23894;51.466;7.444;2022-09-09T11:52:41;24.40;99.90
38084;DHT22;23894;51.466;7.444;2022-09-09T11:54:49;24.30;99.90
38084;DHT22;23894;51.466;7.444;2022-09-09T11:56:50;24.70;99.90
38084;DHT22;23894;51.466;7.444;2022-09-09T11:59:29;26.20;99.90
38084;DHT22;23894;51.466;7.444;2022-09-09T12:01:36;26.40;99.90
38084;DHT22;23894;51.466;7.444;2022-09-09T12:05:45;25.80;99.90
38084;DHT22;23894;51.466;7.444;2022-09-09T12:09:58;25.10;99.90
38084;DHT22;23894;51.466;7.444;2022-09-09T12:14:22;24.30;99.90
38084;DHT22;23894;51.466;7.444;2022-09-09T12:16:29;24.10;99.90
38084;DHT22;23894;51.466;7.444;2022-09-09T12:18:35;24.00;99.90
38084;DHT22;23894;51.466;7.444;2022-09-09T12:20:37;23.80;99.90
38084;DHT22;23894;51.466;7.444;2022-09-09T12:27:36;23.00;99.90
38084;DHT22;23894;51.466;7.444;2022-09-09T12:29:43;22.80;99.90
38084;DHT22;23894;51.466;7.444;2022-09-09T12:31:59;22.70;99.90
38084;DHT22;23894;51.466;7.444;2022-09-09T12:34:14;22.50;99.90
38084;DHT22;23894;51.466;7.444;2022-09-09T12:52:46;22.40;99.90
38084;DHT22;23894;51.466;7.444;2022-09-09T12:54:47;23.60;99.90
38084;DHT22;23894;51.466;7.444;2022-09-09T12:56:48;24.00;99.90
38084;DHT22;23894;51.466;7.444;2022-09-09T12:58:51;23.90;99.90
38084;DHT22;23894;51.466;7.444;2022-09-09T13:00:53;23.60;99.90
38084;DHT22;23894;51.466;7.444;2022-09-09T13:03:01;23.30;99.90
38084;DHT22;23894;51.466;7.444;2022-09-09T13:05:21;23.10;99.90
38084;DHT22;23894;51.466;7.444;2022-09-09T13:07:22;22.80;99.90
38084;DHT22;23894;51.466;7.444;2022-09-09T13:09:22;22.60;99.90
38084;DHT22;23894;51.466;7.444;2022-09-09T13:11:30;22.50;99.90
38084;DHT22;23894;51.466;7.444;2022-09-09T13:13:39;22.30;99.90
38084;DHT22;23894;51.466;7.444;2022-09-09T13:15:52;22.10;99.90
38084;DHT22;23894;51.466;7.444;2022-09-09T13:17:56;21.90;99.90
38084;DHT22;23894;51.466;7.444;2022-09-09T13:19:57;21.80;99.90
38084;DHT22;23894;51.466;7.444;2022-09-09T13:21:58;21.70;99.90
38084;DHT22;23894;51.466;7.444;2022-09-09T13:23:59;21.70;99.90
38084;DHT22;23894;51.466;7.444;2022-09-09T13:26:20;21.80;99.90
38084;DHT22;23894;51.466;7.444;2022-09-09T13:28:23;22.00;99.90
38084;DHT22;23894;51.466;7.444;2022-09-09T13:30:27;22.50;99.90
38084;DHT22;23894;51.466;7.444;2022-09-09T13:34:33;24.70;99.90
38084;DHT22;23894;51.466;7.444;2022-09-09T13:36:34;25.40;99.90
38084;DHT22;23894;51.466;7.444;2022-09-09T13:43:04;28.60;99.90
38084;DHT22;23894;51.466;7.444;2022-09-09T13:45:14;28.20;99.90
38084;DHT22;23894;51.466;7.444;2022-09-09T13:51:34;26.20;99.90
